createdAt,value
2019-02-26T00:03:04.749Z,92.56
2019-02-26T00:08:02.457Z,93.13
2019-02-26T00:12:57.490Z,92.94
2019-02-26T00:17:53.315Z,93.32
2019-02-26T00:22:48.760Z,93.23
2019-02-26T00:27:44.435Z,92.66
2019-02-26T00:32:40.546Z,93.32
2019-02-26T00:37:37.051Z,92.28
2019-02-26T00:42:34.251Z,93.32
2019-02-26T00:47:33.882Z,94.37
2019-02-26T00:52:30.464Z,91.99
2019-02-26T00:57:27.320Z,92.28
2019-02-26T01:02:25.121Z,93.70
2019-02-26T01:07:21.363Z,93.99
2019-02-26T01:12:18.344Z,94.65
2019-02-26T01:17:14.842Z,93.99
2019-02-26T01:22:11.268Z,94.46
2019-02-26T01:27:08.465Z,95.36
2019-02-26T01:32:03.784Z,95.55
2019-02-26T01:37:00.909Z,96.31
2019-02-26T01:41:58.824Z,96.50
2019-02-26T01:46:55.623Z,96.59
2019-02-26T01:51:53.937Z,96.93
2019-02-26T01:56:50.891Z,97.17
2019-02-26T02:01:49.634Z,98.07
2019-02-26T02:06:45.942Z,98.92
2019-02-26T02:11:41.811Z,98.73
2019-02-26T02:16:37.314Z,98.59
2019-02-26T02:21:33.812Z,99.44
2019-02-26T02:26:30.611Z,99.73
2019-02-26T02:31:31.120Z,99.99
2019-02-26T02:36:27.403Z,99.99
2019-02-26T02:41:22.603Z,99.99
2019-02-26T02:46:18.134Z,99.99
2019-02-26T02:51:13.779Z,99.99
2019-02-26T02:56:10.550Z,99.99
2019-02-26T03:01:07.149Z,99.99
2019-02-26T03:06:06.495Z,99.99
2019-02-26T03:11:01.429Z,99.99
2019-02-26T03:15:59.264Z,99.99
2019-02-26T03:20:56.691Z,99.99
2019-02-26T03:25:55.187Z,99.99
2019-02-26T03:30:50.310Z,99.11
2019-02-26T03:35:45.876Z,99.68
2019-02-26T03:40:41.959Z,99.82
2019-02-26T03:45:37.596Z,99.58
2019-02-26T03:50:33.328Z,99.68
2019-02-26T03:55:31.707Z,98.82
2019-02-26T04:00:27.884Z,96.45
2019-02-26T04:05:24.498Z,97.02
2019-02-26T04:10:19.923Z,99.11
2019-02-26T04:15:15.457Z,98.54
2019-02-26T04:20:12.617Z,98.92
2019-02-26T04:25:09.279Z,99.68
2019-02-26T04:30:06.287Z,99.99
2019-02-26T04:35:04.155Z,99.99
2019-02-26T04:40:01.465Z,99.99
2019-02-26T04:45:01.226Z,99.99
2019-02-26T04:50:00.671Z,99.99
2019-02-26T04:54:57.840Z,99.99
2019-02-26T04:59:55.469Z,99.99
2019-02-26T05:04:50.955Z,99.99
2019-02-26T05:09:47.536Z,99.99
2019-02-26T05:14:44.797Z,99.99
2019-02-26T05:19:43.377Z,99.99
2019-02-26T05:24:42.423Z,99.99
2019-02-26T05:29:40.974Z,99.99
2019-02-26T05:34:39.848Z,99.99
2019-02-26T05:39:36.446Z,99.99
2019-02-26T05:44:31.920Z,99.99
2019-02-26T05:49:31.558Z,99.99
2019-02-26T05:54:29.218Z,99.99
2019-02-26T05:59:23.996Z,99.99
2019-02-26T06:04:20.681Z,99.99
2019-02-26T06:09:16.371Z,99.99
2019-02-26T06:14:12.646Z,99.99
2019-02-26T06:19:10.914Z,99.99
2019-02-26T06:24:06.201Z,99.99
2019-02-26T06:29:03.036Z,99.99
2019-02-26T06:34:01.660Z,99.99
2019-02-26T06:38:58.869Z,99.99
2019-02-26T06:43:55.626Z,99.99
2019-02-26T06:48:52.257Z,99.99
2019-02-26T06:53:49.795Z,99.99
2019-02-26T06:58:47.430Z,99.99
2019-02-26T07:03:42.637Z,99.99
2019-02-26T07:08:38.612Z,99.99
2019-02-26T07:13:36.182Z,99.99
2019-02-26T07:18:31.584Z,99.99
2019-02-26T07:23:29.310Z,99.99
2019-02-26T07:28:26.847Z,99.99
2019-02-26T07:33:22.241Z,99.99
2019-02-26T07:38:18.941Z,99.99
2019-02-26T07:43:17.914Z,99.99
2019-02-26T07:48:18.598Z,99.99
2019-02-26T09:57:52.091Z,84.83
2019-02-26T10:02:47.166Z,82.35
2019-02-26T10:07:44.527Z,81.25
2019-02-26T10:12:40.652Z,79.72
2019-02-26T10:17:39.986Z,79.48
2019-02-26T10:22:38.010Z,77.28
2019-02-26T10:27:36.131Z,75.37
2019-02-26T10:32:33.716Z,76.27
2019-02-26T10:37:31.314Z,74.37
2019-02-26T10:42:27.208Z,73.88
2019-02-26T10:47:25.082Z,72.58
2019-02-26T10:52:23.873Z,71.76
2019-02-26T10:57:20.383Z,71.03
2019-02-26T11:02:17.793Z,69.21
2019-02-26T11:07:16.360Z,66.73
2019-02-26T11:12:12.895Z,66.86
2019-02-26T11:17:09.915Z,62.55
2019-02-26T11:22:06.922Z,57.70
2019-02-26T11:27:04.115Z,53.62
2019-02-26T11:32:01.657Z,54.60
2019-02-26T11:37:00.768Z,52.42
2019-02-26T11:42:00.770Z,47.15
2019-02-26T11:46:56.608Z,48.35
2019-02-26T11:51:52.100Z,48.75
2019-02-26T11:56:49.869Z,48.59
2019-02-26T12:01:47.027Z,47.25
2019-02-26T12:06:43.595Z,46.58
2019-02-26T12:11:40.336Z,47.99
2019-02-26T12:16:35.670Z,46.55
2019-02-26T12:21:32.301Z,44.64
2019-02-26T12:26:30.212Z,45.69
2019-02-26T12:31:28.428Z,42.36
2019-02-26T12:36:26.632Z,44.27
2019-02-26T12:41:25.500Z,41.13
2019-02-26T12:46:23.890Z,40.37
2019-02-26T12:51:20.035Z,36.16
2019-02-26T12:56:17.082Z,33.09
2019-02-26T13:01:12.884Z,31.95
2019-02-26T13:06:11.901Z,31.07
2019-02-26T13:11:11.764Z,31.16
2019-02-26T13:16:07.996Z,29.15
2019-02-26T13:21:08.943Z,31.93
2019-02-26T13:26:04.635Z,32.59
2019-02-26T13:31:04.960Z,32.78
2019-02-26T13:36:04.845Z,33.35
2019-02-26T13:41:24.357Z,32.79
2019-02-26T13:46:00.940Z,31.75
2019-02-26T13:50:56.668Z,30.68
2019-02-26T13:55:52.561Z,30.32
2019-02-26T14:00:48.695Z,29.83
2019-02-26T14:05:45.290Z,29.28
2019-02-26T14:10:41.511Z,28.91
2019-02-26T14:15:37.490Z,30.82
2019-02-26T14:20:34.400Z,36.38
2019-02-26T14:25:29.564Z,38.47
2019-02-26T14:30:25.496Z,38.93
2019-02-26T14:35:23.020Z,37.78
2019-02-26T14:40:19.081Z,36.82
2019-02-26T14:45:14.251Z,37.95
2019-02-26T14:50:10.033Z,39.01
2019-02-26T14:55:06.413Z,39.01
2019-02-26T15:00:02.267Z,40.73
2019-02-26T15:04:58.136Z,41.78
2019-02-26T15:09:53.768Z,41.78
2019-02-26T15:14:49.665Z,41.40
2019-02-26T15:19:49.625Z,40.92
2019-02-26T15:24:45.601Z,39.94
2019-02-26T15:29:41.120Z,40.83
2019-02-26T15:34:37.127Z,41.28
2019-02-26T15:39:33.801Z,41.38
2019-02-26T15:44:30.349Z,42.34
2019-02-26T15:49:25.737Z,42.82
2019-02-26T15:54:21.666Z,43.39
2019-02-26T15:59:17.513Z,44.06
2019-02-26T16:04:13.245Z,44.62
2019-02-26T16:09:09.961Z,42.70
2019-02-26T16:14:05.475Z,42.03
2019-02-26T16:19:01.330Z,42.51
2019-02-26T16:23:58.626Z,42.49
2019-02-26T16:28:56.471Z,42.11
2019-02-26T16:33:51.937Z,42.20
2019-02-26T16:38:50.736Z,42.58
2019-02-26T16:43:47.289Z,44.76
2019-02-26T16:48:42.607Z,45.81
2019-02-26T16:53:39.191Z,47.13
2019-02-26T16:58:35.616Z,49.23
2019-02-26T17:03:34.051Z,49.23
2019-02-26T17:08:30.746Z,51.98
2019-02-26T17:13:25.997Z,54.94
2019-02-26T17:18:21.664Z,54.06
2019-02-26T17:23:18.800Z,54.25
2019-02-26T17:28:15.805Z,54.99
2019-02-26T17:33:14.562Z,55.18
2019-02-26T17:38:12.852Z,56.10
2019-02-26T17:43:10.500Z,57.06
2019-02-26T17:48:06.484Z,58.58
2019-02-26T17:53:02.172Z,59.25
2019-02-26T17:57:57.948Z,60.36
2019-02-26T18:02:53.555Z,61.04
2019-02-26T18:07:50.775Z,62.84
2019-02-26T18:12:46.628Z,63.70
2019-02-26T18:17:42.174Z,62.75
2019-02-26T18:22:38.481Z,65.33
2019-02-26T18:27:34.417Z,63.10
2019-02-26T18:32:30.050Z,63.39
2019-02-26T18:37:26.149Z,63.96
2019-02-26T18:42:22.098Z,65.45
2019-02-26T18:47:18.062Z,64.50
2019-02-26T18:52:13.898Z,67.16
2019-02-26T18:57:11.504Z,67.16
2019-02-26T19:02:07.452Z,67.74
2019-02-26T19:07:05.218Z,68.50
2019-02-26T19:12:00.383Z,68.65
2019-02-26T19:16:56.086Z,69.23
2019-02-26T19:21:54.105Z,69.99
2019-02-26T19:26:49.976Z,70.75
2019-02-26T19:31:46.809Z,70.84
2019-02-26T19:36:45.456Z,72.37
2019-02-26T19:41:40.848Z,71.42
2019-02-26T19:46:36.387Z,68.62
2019-02-26T19:51:32.481Z,72.05
2019-02-26T19:56:29.075Z,73.57
2019-02-26T20:01:25.855Z,73.47
2019-02-26T20:06:23.562Z,75.67
2019-02-26T20:11:22.832Z,75.85
2019-02-26T20:16:18.251Z,75.28
2019-02-26T20:21:13.666Z,74.96
2019-02-26T20:26:10.635Z,75.34
2019-02-26T20:31:05.863Z,74.01
2019-02-26T20:36:01.495Z,75.91
2019-02-26T20:40:57.360Z,75.24
2019-02-26T20:45:53.978Z,72.20
2019-02-26T20:50:53.459Z,73.91
2019-02-26T20:55:52.571Z,75.81
2019-02-26T21:00:48.308Z,75.05
2019-02-26T21:05:44.741Z,72.92
2019-02-26T21:10:40.530Z,74.73
2019-02-26T21:15:36.208Z,75.02
2019-02-26T21:20:31.811Z,75.78
2019-02-26T21:25:28.682Z,77.11
2019-02-26T21:30:26.466Z,77.39
2019-02-26T21:35:21.466Z,77.77
2019-02-26T21:40:17.227Z,79.49
2019-02-26T21:45:16.192Z,81.16
2019-02-26T21:50:10.898Z,80.40
2019-02-26T21:55:07.594Z,80.96
2019-02-26T22:00:05.495Z,81.20
2019-02-26T22:05:05.089Z,81.86
2019-02-26T22:10:00.002Z,82.05
2019-02-26T22:14:55.931Z,81.29
2019-02-26T22:19:52.428Z,81.58
2019-02-26T22:24:47.885Z,80.49
2019-02-26T22:29:47.919Z,81.16
2019-02-26T22:34:42.932Z,81.92
2019-02-26T22:39:38.481Z,83.01
2019-02-26T22:44:34.270Z,84.44
2019-02-26T22:49:31.382Z,84.06
2019-02-26T22:54:26.875Z,84.16
2019-02-26T22:59:22.516Z,84.63
2019-02-26T23:04:19.673Z,84.91
2019-02-26T23:09:17.645Z,84.16
2019-02-26T23:14:13.745Z,83.97
2019-02-26T23:19:09.245Z,84.63
2019-02-26T23:24:05.005Z,85.53
2019-02-26T23:29:01.096Z,86.87
2019-02-26T23:33:56.624Z,87.72
2019-02-26T23:38:51.711Z,88.67
2019-02-26T23:43:48.195Z,87.91
2019-02-26T23:48:43.667Z,88.20
2019-02-26T23:53:40.448Z,87.15
2019-02-26T23:58:36.792Z,87.91
